»·PEaware :: N153MS KPOC-KMYF

N153MS :: KPOC-KMYF

FLIGHT INFORMATION

Flight Status: Arrived
Operator: Privately registered:
United States
More flights under this callsign
Pilot: Shane N. (25833)
Aircraft: MOONEY M-20K/M ENCORE BRAVO
(M20T)
More flights by this aircraft type
Origin: KPOC Brackett
United States
Destination: KMYF Montgomery
United States
More flights between these airports :: More routes between these airports
Route: +PRADO V16 PDZ V186 HAILE V66 MZB
File this flight plan on PilotEdge
Remarks: TEC ONTP12
Altitude:
(Current/Filed)
9,000ft
Speed:
(Current/Filed)
180kts
Departed: 17-Oct-19 09:06 PM
Arrived: 17-Oct-19 09:56 PM
Distance/Time
Traveled:
83nm/0:50
Distance/Time
To Go:
Arrived

Flight Plot

Page will automatically refresh every two minutes.


Map Options




Map Legend


Flown Route
Filed Route
Departure Airport
Arrival Airport
Navaid (VOR, NDB)
Fix

Horizontal Profiles

Position Reports

Time Latitude Longitude Heading Altitude Ground
Speed
17-Oct-19 20:42 34.090213 -117.782039 42 992ft 0kts
17-Oct-19 20:43 34.090213 -117.782039 42 992ft 0kts
17-Oct-19 20:44 34.090213 -117.782039 42 992ft 0kts
17-Oct-19 20:45 34.090213 -117.782039 42 992ft 0kts
17-Oct-19 20:46 34.090213 -117.782039 42 992ft 0kts
17-Oct-19 20:47 34.090213 -117.782039 42 992ft 0kts
17-Oct-19 20:48 34.090213 -117.782039 42 992ft 0kts
17-Oct-19 20:49 34.090213 -117.782039 42 992ft 0kts
17-Oct-19 20:50 34.090213 -117.782039 42 992ft 0kts
17-Oct-19 20:51 34.090213 -117.782039 42 992ft 0kts
17-Oct-19 20:52 34.090213 -117.782039 42 992ft 0kts
17-Oct-19 20:53 34.090213 -117.782039 42 992ft 0kts
17-Oct-19 20:54 34.090213 -117.782039 42 992ft 0kts
17-Oct-19 20:55 34.090213 -117.782039 42 992ft 0kts
17-Oct-19 20:56 34.090213 -117.782039 42 992ft 0kts
17-Oct-19 20:57 34.090213 -117.782039 42 992ft 0kts
17-Oct-19 20:58 34.090213 -117.782039 42 992ft 0kts
17-Oct-19 20:59 34.090213 -117.782039 42 992ft 0kts
17-Oct-19 21:00 34.090593 -117.780998 92 995ft 11kts
17-Oct-19 21:01 34.090522 -117.774643 1 1011ft 0kts
17-Oct-19 21:02 34.090522 -117.774643 1 1011ft 0kts
17-Oct-19 21:03 34.090522 -117.774643 1 1011ft 0kts
17-Oct-19 21:04 34.091011 -117.774917 265 1012ft 9kts
17-Oct-19 21:05 34.092293 -117.796528 271 2003ft 82kts
17-Oct-19 21:06 34.075792 -117.799282 152 3664ft 93kts
17-Oct-19 21:07 34.045275 -117.787793 180 4911ft 138kts
17-Oct-19 21:08 34.004422 -117.786340 182 6248ft 148kts
17-Oct-19 21:09 33.963541 -117.784638 172 7749ft 150kts
17-Oct-19 21:10 33.950840 -117.735421 100 8989ft 187kts
17-Oct-19 21:11 33.939818 -117.665434 101 8999ft 226kts
17-Oct-19 21:12 33.927777 -117.589424 102 9001ft 231kts
17-Oct-19 21:13 33.904301 -117.519252 136 8997ft 233kts
17-Oct-19 21:14 33.852303 -117.474591 142 9002ft 231kts
17-Oct-19 21:15 33.799495 -117.430355 142 9007ft 231kts
17-Oct-19 21:16 33.751178 -117.389929 150 9017ft 196kts
17-Oct-19 21:17 33.706312 -117.352459 142 9015ft 200kts
17-Oct-19 21:18 33.660341 -117.314078 143 9012ft 205kts
17-Oct-19 21:19 33.613244 -117.274858 144 9011ft 206kts
17-Oct-19 21:20 33.566038 -117.235596 144 9012ft 206kts
17-Oct-19 21:21 33.527332 -117.203429 144 9011ft 207kts
17-Oct-19 21:22 33.479739 -117.165573 160 9004ft 207kts
17-Oct-19 21:23 33.423720 -117.150361 171 9008ft 205kts
17-Oct-19 21:24 33.367472 -117.138216 171 9009ft 206kts
17-Oct-19 21:25 33.310612 -117.126158 170 9009ft 207kts
17-Oct-19 21:26 33.256346 -117.114665 176 9008ft 190kts
17-Oct-19 21:27 33.204673 -117.103747 176 9009ft 186kts
17-Oct-19 21:28 33.153623 -117.092974 176 9011ft 185kts
17-Oct-19 21:29 33.105488 -117.065466 151 8431ft 205kts
17-Oct-19 21:30 33.057215 -117.027807 151 7417ft 205kts
17-Oct-19 21:31 33.009768 -116.991289 151 6403ft 199kts
17-Oct-19 21:32 32.968960 -116.959613 151 5993ft 156kts
17-Oct-19 21:33 32.934515 -116.931868 151 5994ft 144kts
17-Oct-19 21:34 32.899972 -116.904068 151 5996ft 176kts
17-Oct-19 21:35 32.859942 -116.872948 151 5348ft 170kts
17-Oct-19 21:36 32.820805 -116.843200 151 4993ft 156kts
17-Oct-19 21:37 32.780320 -116.835696 181 4561ft 159kts
17-Oct-19 21:38 32.737519 -116.850670 201 3998ft 155kts
17-Oct-19 21:39 32.715411 -116.886302 260 3996ft 150kts
17-Oct-19 21:40 32.713309 -116.935188 274 3990ft 151kts
17-Oct-19 21:41 32.745702 -116.971707 317 3718ft 174kts
17-Oct-19 21:42 32.783648 -117.006438 318 3593ft 166kts
17-Oct-19 21:43 32.823755 -117.023047 42 3580ft 170kts
17-Oct-19 21:44 32.825582 -116.971120 101 3593ft 162kts
17-Oct-19 21:45 32.820181 -116.917818 100 3593ft 162kts
17-Oct-19 21:46 32.798288 -116.877104 132 3593ft 152kts
17-Oct-19 21:47 32.764283 -116.857658 192 3591ft 146kts
17-Oct-19 21:48 32.728594 -116.880297 232 3585ft 150kts
17-Oct-19 21:49 32.733910 -116.930495 287 3595ft 162kts
17-Oct-19 21:50 32.753378 -116.980623 290 3224ft 175kts
17-Oct-19 21:51 32.771709 -117.026919 290 2405ft 135kts
17-Oct-19 21:52 32.787103 -117.065929 291 1698ft 123kts
17-Oct-19 21:53 32.798837 -117.095714 290 1076ft 97kts
17-Oct-19 21:54 32.809727 -117.123214 288 730ft 75kts
17-Oct-19 21:55 32.817039 -117.141709 316 420ft 23kts
17-Oct-19 21:56 32.816904 -117.145166 200 415ft 1kts
17-Oct-19 21:58 32.815579 -117.143885 114 418ft 14kts
17-Oct-19 21:59 32.813759 -117.141481 194 417ft 6kts
17-Oct-19 22:00 32.813191 -117.140888 183 418ft 0kts
17-Oct-19 22:01 32.813191 -117.140888 183 418ft 0kts
17-Oct-19 22:02 32.813191 -117.140888 183 418ft 0kts
17-Oct-19 22:03 32.813191 -117.140888 183 418ft 0kts

Navigation Log

Ident Type
Flight plan parsing failed, navigation log unavailable